Time;durP1;ratioP1;P1;durP2;ratioP2;P2;SDS_P1;SDS_P2;PMS_P1;PMS_P2;Temp;Humidity;BMP_temperature;BMP_pressure;BME280_temperature;BME280_humidity;BME280_pressure;Samples;Min_cycle;Max_cycle;Signal;HPM_P1;HPM_P2
2022/10/16 00:01:30;;;;;;;2.13;1.58;;;13.10;99.90;;;;;;4983630;28;20019;-82
2022/10/16 00:03:58;;;;;;;1.63;1.40;;;13.00;99.90;;;;;;4991086;28;20086;-82
2022/10/16 00:06:26;;;;;;;2.08;1.65;;;13.00;99.90;;;;;;4992827;28;20510;-81
2022/10/16 00:08:52;;;;;;;3.38;1.70;;;13.00;99.90;;;;;;4986596;28;20130;-81
2022/10/16 00:11:26;;;;;;;1.92;1.20;;;13.00;99.90;;;;;;4989118;28;20038;-81
2022/10/16 00:13:58;;;;;;;2.15;1.60;;;13.00;99.90;;;;;;4987768;28;20037;-81
2022/10/16 00:16:24;;;;;;;1.63;1.40;;;12.90;99.90;;;;;;4986785;28;20031;-80
2022/10/16 00:18:50;;;;;;;1.75;1.60;;;12.90;99.90;;;;;;4988174;28;20069;-81
2022/10/16 00:21:20;;;;;;;1.73;1.63;;;12.90;99.90;;;;;;4986907;28;20403;-81
2022/10/16 00:23:46;;;;;;;2.03;1.50;;;12.90;99.90;;;;;;4982738;28;20118;-80
2022/10/16 00:26:16;;;;;;;2.17;1.38;;;12.90;99.90;;;;;;4982962;28;20031;-81
2022/10/16 00:28:42;;;;;;;2.05;1.52;;;12.90;99.90;;;;;;4983771;28;20041;-81
2022/10/16 00:31:11;;;;;;;2.88;1.52;;;12.90;99.90;;;;;;4984309;28;20079;-81
2022/10/16 00:33:38;;;;;;;1.48;1.38;;;12.80;99.90;;;;;;4985963;28;20033;-81
2022/10/16 00:36:06;;;;;;;1.73;1.48;;;12.80;99.90;;;;;;4996834;28;20030;-81
2022/10/16 00:38:32;;;;;;;1.40;1.15;;;12.80;99.90;;;;;;5006969;28;20097;-81
2022/10/16 00:40:58;;;;;;;2.03;1.52;;;12.80;99.90;;;;;;5005675;28;20037;-81
2022/10/16 00:43:43;;;;;;;2.05;1.48;;;12.80;99.90;;;;;;4988806;28;20081;-81
2022/10/16 00:46:26;;;;;;;1.40;1.30;;;12.70;99.90;;;;;;4981351;28;20063;-82
2022/10/16 00:49:08;;;;;;;2.72;1.63;;;12.70;99.90;;;;;;4979025;28;20404;-81
2022/10/16 00:51:38;;;;;;;1.58;1.38;;;12.70;99.90;;;;;;4985923;28;20033;-81
2022/10/16 00:54:09;;;;;;;1.42;1.30;;;12.70;99.90;;;;;;4995354;28;20029;-80
2022/10/16 00:56:35;;;;;;;1.60;1.50;;;12.70;99.90;;;;;;4990475;28;20019;-81
2022/10/16 00:59:06;;;;;;;1.85;1.20;;;12.70;99.90;;;;;;4979379;28;20027;-81
2022/10/16 01:01:32;;;;;;;1.42;1.10;;;12.70;99.90;;;;;;4981420;28;20049;-81
2022/10/16 01:03:57;;;;;;;1.52;1.30;;;12.70;99.90;;;;;;4990800;28;20456;-80
2022/10/16 01:06:56;;;;;;;1.08;1.08;;;12.70;99.90;;;;;;4997298;28;20035;-81
2022/10/16 01:09:34;;;;;;;1.27;1.10;;;12.70;99.90;;;;;;4985357;28;20035;-80
2022/10/16 01:12:12;;;;;;;1.45;1.20;;;12.70;99.90;;;;;;4980081;28;20050;-80
2022/10/16 01:14:48;;;;;;;1.90;1.02;;;12.70;99.90;;;;;;4981005;28;20027;-81
2022/10/16 01:17:39;;;;;;;1.88;1.27;;;12.70;99.90;;;;;;4981417;28;20029;-81
2022/10/16 01:20:18;;;;;;;1.90;1.40;;;12.70;99.90;;;;;;4979135;28;20023;-81
2022/10/16 01:23:15;;;;;;;1.88;1.25;;;12.70;99.90;;;;;;4980175;28;20038;-80
2022/10/16 01:26:11;;;;;;;1.08;0.98;;;12.70;99.90;;;;;;4981569;28;20027;-81
2022/10/16 01:28:50;;;;;;;1.25;1.10;;;12.70;99.90;;;;;;4979301;28;20761;-81
2022/10/16 01:31:20;;;;;;;1.30;1.20;;;12.70;99.90;;;;;;4979662;28;20027;-83
2022/10/16 01:33:51;;;;;;;1.33;1.08;;;12.60;99.90;;;;;;4985376;28;20018;-82
2022/10/16 01:36:24;;;;;;;1.83;1.17;;;12.60;99.90;;;;;;4991341;28;20037;-81
2022/10/16 01:38:52;;;;;;;1.42;1.23;;;12.60;99.90;;;;;;5001039;28;20053;-81
2022/10/16 01:41:38;;;;;;;0.90;0.88;;;12.60;99.90;;;;;;5003154;28;20025;-81
2022/10/16 01:44:18;;;;;;;1.23;1.13;;;12.60;99.90;;;;;;4984583;28;20074;-82
2022/10/16 01:46:47;;;;;;;1.20;0.98;;;12.60;99.90;;;;;;4991268;28;20015;-81
2022/10/16 01:49:13;;;;;;;2.22;1.40;;;12.60;99.90;;;;;;4989764;28;20030;-81
2022/10/16 01:51:39;;;;;;;4.00;1.58;;;12.60;99.90;;;;;;4996820;28;20034;-81
2022/10/16 01:54:08;;;;;;;3.08;1.38;;;12.60;99.90;;;;;;4997998;28;20015;-82
2022/10/16 01:56:35;;;;;;;1.70;1.58;;;12.60;99.90;;;;;;4996831;28;20042;-81
2022/10/16 01:59:10;;;;;;;2.42;1.38;;;12.60;99.90;;;;;;4992184;28;20050;-81
2022/10/16 02:01:38;;;;;;;1.70;1.35;;;12.60;99.90;;;;;;4985142;28;20471;-81
2022/10/16 02:04:18;;;;;;;1.83;1.60;;;12.60;99.90;;;;;;4982349;28;20070;-81
2022/10/16 02:06:44;;;;;;;1.40;1.25;;;12.60;99.90;;;;;;4985781;28;20484;-81
2022/10/16 02:09:10;;;;;;;1.25;1.15;;;12.60;99.90;;;;;;4981859;28;20049;-81
2022/10/16 02:11:36;;;;;;;1.30;1.20;;;12.60;99.90;;;;;;4982864;28;20111;-81
2022/10/16 02:14:05;;;;;;;1.17;1.08;;;12.60;99.90;;;;;;4982933;28;20066;-81
2022/10/16 02:16:40;;;;;;;1.30;1.20;;;12.60;99.90;;;;;;4985002;28;20337;-81
2022/10/16 02:19:07;;;;;;;1.05;0.93;;;12.70;99.90;;;;;;4981702;28;20054;-82
2022/10/16 02:21:55;;;;;;;1.52;1.17;;;12.60;99.90;;;;;;4983113;28;20027;-81
2022/10/16 02:25:00;;;;;;;1.23;1.10;;;12.60;99.90;;;;;;4981026;28;20057;-81
2022/10/16 02:27:35;;;;;;;3.15;1.13;;;12.60;99.90;;;;;;4976473;28;20062;-81
2022/10/16 02:30:21;;;;;;;2.63;0.77;;;12.60;99.90;;;;;;4982462;28;20022;-81
2022/10/16 02:32:48;;;;;;;1.30;1.10;;;12.60;99.90;;;;;;4988413;28;20065;-81
2022/10/16 02:35:18;;;;;;;2.53;1.08;;;12.60;99.90;;;;;;5000469;28;20030;-81
2022/10/16 02:37:46;;;;;;;1.35;1.13;;;12.60;99.90;;;;;;4983077;28;20023;-81
2022/10/16 02:40:13;;;;;;;1.75;1.08;;;12.50;99.90;;;;;;4993199;28;20047;-81
2022/10/16 02:42:40;;;;;;;0.82;0.70;;;12.50;99.90;;;;;;4985398;28;20019;-81
2022/10/16 02:45:07;;;;;;;0.70;0.70;;;12.50;99.90;;;;;;4987846;28;20029;-81
2022/10/16 02:47:33;;;;;;;2.65;1.08;;;12.50;99.90;;;;;;4983703;28;20079;-81
2022/10/16 02:49:59;;;;;;;1.05;0.95;;;12.50;99.90;;;;;;4981954;28;20019;-82
2022/10/16 02:52:25;;;;;;;1.20;1.10;;;12.40;99.90;;;;;;4981755;28;20109;-81
2022/10/16 02:54:51;;;;;;;3.38;0.98;;;12.40;99.90;;;;;;4983911;28;20026;-81
2022/10/16 02:57:17;;;;;;;1.52;1.20;;;12.40;99.90;;;;;;4984463;28;20057;-81
2022/10/16 02:59:43;;;;;;;1.15;1.05;;;12.30;99.90;;;;;;4999643;28;20073;-82
2022/10/16 03:02:09;;;;;;;0.65;0.65;;;12.30;99.90;;;;;;5002197;28;20018;-81
2022/10/16 03:04:35;;;;;;;1.08;0.95;;;12.30;99.90;;;;;;4992706;28;20026;-81
2022/10/16 03:07:00;;;;;;;1.00;1.00;;;12.30;99.90;;;;;;5001087;28;20092;-81
2022/10/16 03:09:26;;;;;;;1.15;1.08;;;12.20;99.90;;;;;;5006017;28;20030;-81
2022/10/16 03:11:52;;;;;;;1.17;1.08;;;12.20;99.90;;;;;;5008831;28;20030;-81
2022/10/16 03:14:17;;;;;;;1.10;1.00;;;12.20;99.90;;;;;;5010490;28;20431;-81
2022/10/16 03:16:43;;;;;;;2.38;1.15;;;12.20;99.90;;;;;;4996661;28;20031;-81
2022/10/16 03:19:09;;;;;;;1.38;1.13;;;12.10;99.90;;;;;;4988823;28;20027;-81
2022/10/16 03:21:34;;;;;;;1.08;0.90;;;12.10;99.90;;;;;;4988468;28;20074;-81
2022/10/16 03:24:00;;;;;;;0.95;0.90;;;12.10;99.90;;;;;;4986967;28;20023;-81
2022/10/16 03:26:26;;;;;;;1.05;1.00;;;12.10;99.90;;;;;;4989654;28;20031;-80
2022/10/16 03:28:51;;;;;;;1.42;1.10;;;12.10;99.90;;;;;;4993387;28;20034;-80
2022/10/16 03:31:17;;;;;;;1.30;1.00;;;12.10;99.90;;;;;;4981518;28;20027;-81
2022/10/16 03:33:43;;;;;;;2.13;0.88;;;12.10;99.90;;;;;;4981726;28;20027;-81
2022/10/16 03:36:56;;;;;;;1.02;1.00;;;12.10;99.90;;;;;;5016201;23;20076;-81
2022/10/16 03:39:24;;;;;;;0.95;0.85;;;12.20;99.90;;;;;;5001643;28;20042;-82
2022/10/16 03:41:49;;;;;;;1.77;1.10;;;12.20;99.90;;;;;;5006835;28;20089;-82
2022/10/16 03:44:21;;;;;;;0.90;0.90;;;12.30;99.90;;;;;;4990278;28;20053;-82
2022/10/16 03:46:48;;;;;;;1.13;1.02;;;12.30;99.90;;;;;;5009479;28;20038;-82
2022/10/16 03:49:17;;;;;;;1.52;1.15;;;12.40;99.90;;;;;;5009677;28;20026;-82
2022/10/16 03:52:18;;;;;;;2.80;1.38;;;12.40;99.90;;;;;;4992905;28;20054;-82
2022/10/16 03:54:47;;;;;;;1.88;1.00;;;12.50;99.90;;;;;;5026808;28;20026;-81
2022/10/16 03:57:13;;;;;;;1.63;1.20;;;12.60;99.90;;;;;;5020649;28;20088;-82
2022/10/16 03:59:38;;;;;;;1.90;1.30;;;12.60;99.90;;;;;;5026443;28;20096;-83
2022/10/16 04:02:04;;;;;;;1.15;1.05;;;12.70;99.90;;;;;;5024385;28;20022;-83
2022/10/16 04:04:29;;;;;;;1.70;1.30;;;12.70;99.90;;;;;;5025166;28;20087;-81
2022/10/16 04:06:55;;;;;;;1.40;1.20;;;12.70;99.90;;;;;;5026008;28;20034;-82
2022/10/16 04:09:21;;;;;;;2.53;1.10;;;12.80;99.90;;;;;;5025402;28;20055;-82
2022/10/16 04:11:47;;;;;;;1.05;0.98;;;12.80;99.90;;;;;;5007759;28;20097;-82
2022/10/16 04:14:12;;;;;;;0.95;0.90;;;12.80;99.90;;;;;;5024083;28;20038;-82
2022/10/16 04:16:38;;;;;;;0.95;0.95;;;12.80;99.90;;;;;;5006828;28;20056;-83
2022/10/16 04:19:04;;;;;;;1.00;1.00;;;12.90;99.90;;;;;;5007165;28;20056;-82
2022/10/16 04:21:29;;;;;;;1.52;1.42;;;12.90;99.90;;;;;;5006727;28;20041;-83
2022/10/16 04:23:55;;;;;;;0.80;0.80;;;12.90;99.90;;;;;;5004301;28;20022;-82
2022/10/16 04:26:21;;;;;;;1.10;0.98;;;13.00;99.90;;;;;;5009020;28;20037;-83
2022/10/16 04:28:46;;;;;;;0.75;0.75;;;13.00;99.90;;;;;;5003715;28;20029;-83
2022/10/16 04:31:12;;;;;;;1.85;1.15;;;13.00;99.90;;;;;;5022431;28;20084;-84
2022/10/16 04:33:38;;;;;;;1.00;1.00;;;13.00;99.90;;;;;;4997196;28;20061;-82
2022/10/16 04:36:04;;;;;;;1.85;1.13;;;13.00;99.90;;;;;;4983879;28;20027;-84
2022/10/16 04:38:30;;;;;;;1.27;1.20;;;13.00;99.90;;;;;;4998990;28;20045;-81
2022/10/16 04:40:55;;;;;;;1.23;1.13;;;13.00;99.90;;;;;;4984639;28;20026;-80
2022/10/16 04:43:22;;;;;;;1.20;1.10;;;13.00;99.90;;;;;;5002268;28;20026;-81
2022/10/16 04:45:50;;;;;;;1.10;1.00;;;13.00;99.90;;;;;;5003465;28;20040;-83
2022/10/16 04:48:15;;;;;;;1.15;1.00;;;13.00;99.90;;;;;;4996858;28;20019;-82
2022/10/16 04:50:41;;;;;;;1.00;0.90;;;13.10;99.90;;;;;;5005787;28;20092;-80
2022/10/16 04:53:07;;;;;;;1.30;1.20;;;13.00;99.90;;;;;;4996443;28;20030;-81
2022/10/16 04:55:32;;;;;;;1.38;1.27;;;13.10;99.90;;;;;;4978954;28;20495;-82
2022/10/16 04:57:58;;;;;;;0.90;0.90;;;13.10;99.90;;;;;;4996277;28;20108;-81
2022/10/16 05:00:24;;;;;;;1.17;1.05;;;13.10;99.90;;;;;;4997930;28;20019;-82
2022/10/16 05:02:50;;;;;;;1.08;0.98;;;13.10;99.90;;;;;;4981160;28;20056;-82
2022/10/16 05:05:16;;;;;;;2.25;0.73;;;13.10;99.90;;;;;;5012998;28;20026;-82
2022/10/16 05:07:42;;;;;;;0.73;0.73;;;13.10;99.90;;;;;;4980777;28;20480;-82
2022/10/16 05:10:08;;;;;;;2.70;0.90;;;13.10;99.90;;;;;;4982865;28;20052;-84
2022/10/16 05:12:33;;;;;;;1.85;1.40;;;13.10;99.90;;;;;;5010146;28;20041;-85
2022/10/16 05:14:59;;;;;;;1.48;1.05;;;13.10;99.90;;;;;;5012498;28;20034;-82
2022/10/16 05:17:25;;;;;;;1.15;1.05;;;13.10;99.90;;;;;;5004832;28;20041;-83
2022/10/16 05:19:51;;;;;;;4.43;1.38;;;13.10;99.90;;;;;;5000594;28;20023;-83
2022/10/16 05:22:17;;;;;;;0.93;0.93;;;13.10;99.90;;;;;;4997672;28;20057;-83
2022/10/16 05:24:42;;;;;;;1.17;1.08;;;13.10;99.90;;;;;;4979066;28;20026;-83
2022/10/16 05:27:08;;;;;;;1.90;0.90;;;13.10;99.90;;;;;;5016593;28;20090;-84
2022/10/16 05:29:35;;;;;;;1.00;1.00;;;13.20;99.90;;;;;;4982857;28;20034;-82
2022/10/16 05:32:00;;;;;;;1.10;1.00;;;13.20;99.90;;;;;;5007772;28;20034;-84
2022/10/16 05:34:26;;;;;;;0.82;0.77;;;13.20;99.90;;;;;;4982398;28;20029;-83
2022/10/16 05:36:52;;;;;;;0.90;0.90;;;13.20;99.90;;;;;;5006081;28;20045;-83
2022/10/16 05:39:17;;;;;;;1.05;0.98;;;13.20;99.90;;;;;;5013386;28;20030;-84
2022/10/16 05:41:43;;;;;;;1.35;1.10;;;13.20;99.90;;;;;;5001064;28;20114;-84
2022/10/16 05:44:09;;;;;;;1.35;1.25;;;13.20;99.90;;;;;;5000438;28;20168;-82
2022/10/16 05:46:35;;;;;;;1.45;1.20;;;13.20;99.90;;;;;;4983618;28;20054;-83
2022/10/16 05:49:01;;;;;;;2.25;1.90;;;13.20;99.90;;;;;;4980914;28;20506;-84
2022/10/16 05:51:26;;;;;;;3.35;2.40;;;13.20;99.90;;;;;;4999675;28;20360;-83
2022/10/16 05:53:52;;;;;;;2.65;2.03;;;13.20;99.90;;;;;;4998200;28;20022;-84
2022/10/16 05:56:18;;;;;;;1.95;1.80;;;13.20;99.90;;;;;;5011001;28;20386;-84
2022/10/16 05:58:46;;;;;;;1.98;1.80;;;13.20;99.90;;;;;;5001798;28;20038;-84
2022/10/16 06:01:15;;;;;;;1.70;1.60;;;13.20;99.90;;;;;;4989857;28;20130;-84
2022/10/16 06:03:41;;;;;;;1.52;1.42;;;13.10;99.90;;;;;;4981045;28;20145;-84
2022/10/16 06:06:15;;;;;;;1.73;1.63;;;13.10;99.90;;;;;;4980844;28;20053;-84
2022/10/16 06:08:42;;;;;;;2.22;2.03;;;13.10;99.90;;;;;;4999260;28;20034;-83
2022/10/16 06:11:12;;;;;;;1.88;1.77;;;13.00;99.90;;;;;;4980883;28;20037;-83
2022/10/16 06:13:38;;;;;;;2.33;2.00;;;13.00;99.90;;;;;;4998589;28;20026;-83
2022/10/16 06:16:04;;;;;;;2.38;2.00;;;13.00;99.90;;;;;;5005569;28;20026;-85
2022/10/16 06:18:31;;;;;;;3.25;2.55;;;13.00;99.90;;;;;;5011369;28;20044;-84
2022/10/16 06:20:57;;;;;;;3.75;3.20;;;13.00;99.90;;;;;;5002332;28;20032;-85
2022/10/16 06:23:24;;;;;;;4.78;3.60;;;13.00;99.90;;;;;;4992844;28;20375;-85
2022/10/16 06:25:49;;;;;;;5.25;3.90;;;13.00;99.90;;;;;;5020842;28;20174;-85
2022/10/16 06:28:16;;;;;;;6.35;4.80;;;13.10;99.90;;;;;;4990362;28;20027;-84
2022/10/16 06:30:43;;;;;;;7.28;5.13;;;13.10;99.90;;;;;;4998006;28;20026;-83
2022/10/16 06:33:10;;;;;;;9.90;6.68;;;13.10;99.90;;;;;;4993714;28;20492;-83
2022/10/16 06:35:36;;;;;;;10.05;6.65;;;13.20;99.90;;;;;;4997014;28;20510;-86
2022/10/16 06:38:03;;;;;;;10.77;6.82;;;13.20;99.90;;;;;;4981913;28;20030;-84
2022/10/16 06:40:29;;;;;;;10.85;6.45;;;13.30;99.90;;;;;;4998833;28;20034;-83
2022/10/16 06:42:55;;;;;;;11.13;5.57;;;13.40;99.90;;;;;;4994536;28;20031;-83
2022/10/16 06:45:21;;;;;;;7.40;4.70;;;13.40;99.90;;;;;;4979818;28;20041;-81
2022/10/16 06:47:50;;;;;;;5.70;3.72;;;13.50;99.90;;;;;;4994349;28;20050;-84
2022/10/16 06:50:15;;;;;;;4.57;3.17;;;13.50;99.90;;;;;;4993240;28;20018;-82
2022/10/16 06:52:41;;;;;;;3.80;2.80;;;13.60;99.90;;;;;;4986306;28;20094;-83
2022/10/16 06:55:07;;;;;;;3.17;2.55;;;13.60;99.90;;;;;;4983344;28;20034;-83
2022/10/16 06:57:33;;;;;;;2.80;2.28;;;13.60;99.90;;;;;;4982647;28;20026;-83
2022/10/16 06:59:58;;;;;;;3.33;2.10;;;13.50;99.90;;;;;;4999733;28;20029;-85
2022/10/16 07:02:24;;;;;;;2.90;1.98;;;13.50;99.90;;;;;;4999053;28;20023;-82
2022/10/16 07:04:50;;;;;;;3.75;2.40;;;13.50;99.90;;;;;;4998952;28;20036;-82
2022/10/16 07:07:15;;;;;;;1.98;1.75;;;13.50;99.90;;;;;;4983777;28;20110;-84
2022/10/16 07:09:41;;;;;;;1.70;1.60;;;13.60;99.90;;;;;;4983742;28;20038;-84
2022/10/16 07:12:06;;;;;;;1.30;1.20;;;13.60;99.90;;;;;;4982736;28;20022;-82
2022/10/16 07:14:35;;;;;;;1.48;1.38;;;13.60;99.90;;;;;;4998605;28;20067;-83
2022/10/16 07:17:01;;;;;;;3.80;1.75;;;13.70;99.90;;;;;;5000338;28;20022;-83
2022/10/16 07:19:28;;;;;;;2.40;1.83;;;13.80;99.90;;;;;;4999189;28;20027;-83
2022/10/16 07:21:53;;;;;;;2.05;1.85;;;13.90;99.90;;;;;;4981999;28;20018;-84
2022/10/16 07:24:19;;;;;;;1.90;1.70;;;14.10;99.90;;;;;;4982241;28;20088;-85
2022/10/16 07:26:48;;;;;;;1.63;1.52;;;14.20;99.90;;;;;;4998683;28;20034;-80
2022/10/16 07:29:17;;;;;;;3.55;1.50;;;14.20;99.90;;;;;;4980069;28;20022;-81
2022/10/16 07:31:43;;;;;;;1.73;1.63;;;14.20;99.90;;;;;;5000212;28;20018;-81
2022/10/16 07:34:11;;;;;;;3.72;1.80;;;14.30;99.90;;;;;;5013901;28;20065;-81
2022/10/16 07:36:36;;;;;;;1.70;1.55;;;14.40;99.90;;;;;;4981160;28;20041;-82
2022/10/16 07:39:02;;;;;;;12.93;3.38;;;14.50;99.90;;;;;;4998624;28;20054;-82
2022/10/16 07:41:28;;;;;;;2.58;1.80;;;14.70;99.90;;;;;;4981196;28;20033;-82
2022/10/16 07:43:54;;;;;;;1.60;1.50;;;14.90;99.90;;;;;;4999506;28;20025;-84
2022/10/16 07:46:22;;;;;;;1.70;1.60;;;15.10;99.90;;;;;;4997994;28;20097;-82
2022/10/16 07:48:48;;;;;;;2.60;2.00;;;15.30;99.90;;;;;;5003175;28;20459;-83
2022/10/16 07:51:16;;;;;;;2.15;1.95;;;15.60;99.90;;;;;;4981522;28;20037;-83
2022/10/16 07:53:42;;;;;;;2.53;2.10;;;15.70;99.90;;;;;;4999197;28;20022;-82
2022/10/16 07:56:08;;;;;;;1.60;1.50;;;15.80;99.90;;;;;;5013953;28;20040;-81
2022/10/16 07:58:38;;;;;;;1.65;1.55;;;16.00;99.90;;;;;;5008473;28;20014;-83
2022/10/16 08:01:06;;;;;;;2.08;1.80;;;16.10;99.90;;;;;;5003859;28;20027;-82
2022/10/16 08:03:32;;;;;;;6.70;1.98;;;16.10;99.90;;;;;;5001355;28;20022;-81
2022/10/16 08:05:59;;;;;;;1.70;1.60;;;16.20;99.90;;;;;;4998454;28;20026;-82
2022/10/16 08:08:24;;;;;;;1.65;1.55;;;16.40;99.90;;;;;;4980026;28;20079;-82
2022/10/16 08:10:50;;;;;;;1.77;1.67;;;16.70;99.90;;;;;;4998070;28;20034;-83
2022/10/16 08:13:16;;;;;;;1.50;1.40;;;17.00;99.90;;;;;;4998693;28;20041;-81
2022/10/16 08:15:45;;;;;;;1.55;1.42;;;17.40;99.10;;;;;;4981165;28;20369;-81
2022/10/16 08:18:12;;;;;;;1.65;1.55;;;17.60;98.20;;;;;;4997836;28;20133;-82
2022/10/16 08:20:39;;;;;;;1.77;1.50;;;18.00;97.30;;;;;;4998792;28;20023;-81
2022/10/16 08:23:06;;;;;;;1.30;1.20;;;18.20;96.20;;;;;;4980760;28;20042;-82
2022/10/16 08:25:38;;;;;;;1.33;1.23;;;18.50;95.10;;;;;;4998241;28;20058;-82
2022/10/16 08:28:08;;;;;;;1.52;1.42;;;18.70;94.10;;;;;;4997970;28;20093;-82
2022/10/16 08:30:34;;;;;;;1.70;1.60;;;18.90;93.10;;;;;;4997713;28;20093;-81
2022/10/16 08:33:01;;;;;;;1.65;1.55;;;19.10;92.20;;;;;;4997971;28;20050;-82
2022/10/16 08:35:26;;;;;;;1.60;1.40;;;19.30;91.30;;;;;;4997683;28;20034;-82
2022/10/16 08:37:52;;;;;;;1.55;1.42;;;19.50;90.40;;;;;;5012464;28;20474;-81
2022/10/16 08:40:19;;;;;;;1.58;1.40;;;19.60;89.70;;;;;;5017607;28;20363;-83
2022/10/16 08:42:52;;;;;;;1.20;1.10;;;19.80;88.70;;;;;;4999969;28;20034;-81
2022/10/16 08:45:37;;;;;;;1.20;1.10;;;20.00;86.80;;;;;;5030226;28;20038;-85
2022/10/16 08:48:45;;;;;;;1.42;1.33;;;20.20;84.80;;;;;;5037290;28;20010;-85
2022/10/16 08:51:20;;;;;;;1.40;1.30;;;20.40;83.10;;;;;;5013226;28;20065;-83
2022/10/16 08:53:58;;;;;;;1.30;1.20;;;20.60;81.70;;;;;;5019196;28;20025;-81
2022/10/16 08:56:27;;;;;;;1.40;1.30;;;20.80;80.90;;;;;;4999715;28;20491;-82
2022/10/16 08:58:54;;;;;;;1.38;1.10;;;21.00;80.00;;;;;;4998886;28;20032;-82
2022/10/16 09:01:22;;;;;;;1.00;1.00;;;21.20;78.80;;;;;;4997631;28;20018;-82
2022/10/16 09:03:57;;;;;;;1.55;1.45;;;21.40;78.00;;;;;;4979969;28;20431;-82
2022/10/16 09:06:25;;;;;;;1.17;1.15;;;21.50;76.80;;;;;;4995911;28;20494;-82
2022/10/16 09:09:31;;;;;;;1.88;1.10;;;21.70;75.90;;;;;;4997442;28;20034;-81
2022/10/16 09:12:36;;;;;;;1.10;1.10;;;21.80;75.20;;;;;;4980200;28;20026;-80
2022/10/16 09:15:24;;;;;;;1.23;1.15;;;22.00;74.60;;;;;;5002088;28;20037;-83
2022/10/16 09:18:22;;;;;;;1.38;1.27;;;22.10;74.00;;;;;;4997070;28;20402;-83
2022/10/16 09:21:17;;;;;;;1.83;1.13;;;22.20;73.50;;;;;;4999080;28;20006;-81
2022/10/16 09:23:43;;;;;;;0.90;0.90;;;22.30;72.90;;;;;;4989269;28;20104;-82
2022/10/16 09:26:12;;;;;;;1.02;1.02;;;22.40;72.70;;;;;;4984669;28;20029;-81
2022/10/16 09:28:39;;;;;;;1.20;1.10;;;22.50;72.00;;;;;;4998103;28;20034;-85
2022/10/16 09:31:05;;;;;;;2.17;1.42;;;22.60;70.90;;;;;;4973089;28;20014;-82
2022/10/16 09:33:36;;;;;;;1.20;1.13;;;22.70;69.40;;;;;;4998021;28;20113;-82
2022/10/16 09:36:05;;;;;;;1.02;1.02;;;22.70;67.90;;;;;;5055551;22;20116;-84
2022/10/16 09:38:33;;;;;;;1.08;1.08;;;22.70;67.70;;;;;;5021066;28;20502;-84
2022/10/16 09:41:03;;;;;;;2.08;1.35;;;22.70;67.80;;;;;;5019824;28;20022;-84
2022/10/16 09:43:40;;;;;;;1.48;1.38;;;22.80;67.60;;;;;;5022621;28;20029;-83
2022/10/16 09:46:08;;;;;;;1.60;1.50;;;22.90;66.20;;;;;;5034391;28;20041;-85
2022/10/16 09:48:44;;;;;;;1.50;1.40;;;22.90;65.60;;;;;;5043868;28;20026;-84
2022/10/16 09:51:23;;;;;;;1.55;1.45;;;23.00;65.10;;;;;;5024711;28;20456;-84
2022/10/16 09:53:53;;;;;;;1.55;1.23;;;23.00;65.10;;;;;;5055136;28;20013;-84
2022/10/16 09:56:32;;;;;;;1.50;1.40;;;23.10;65.20;;;;;;5031820;28;20033;-84
2022/10/16 09:59:26;;;;;;;1.33;1.23;;;23.20;65.00;;;;;;5028636;28;20022;-83
2022/10/16 10:01:54;;;;;;;3.38;1.20;;;23.30;65.10;;;;;;5038047;28;20033;-84
2022/10/16 10:04:23;;;;;;;2.45;1.27;;;23.30;64.70;;;;;;5052271;28;20037;-84
2022/10/16 10:06:54;;;;;;;1.45;1.35;;;23.40;64.00;;;;;;5047668;28;20039;-84
2022/10/16 10:09:39;;;;;;;1.67;1.58;;;23.40;63.10;;;;;;5043232;28;20030;-83
2022/10/16 10:12:20;;;;;;;1.42;1.33;;;23.50;62.30;;;;;;5019196;28;20026;-83
2022/10/16 10:14:53;;;;;;;1.75;1.65;;;23.60;61.40;;;;;;5017221;28;20383;-83
2022/10/16 10:17:23;;;;;;;1.27;1.17;;;23.70;61.20;;;;;;5037104;28;20061;-85
2022/10/16 10:19:55;;;;;;;2.17;1.50;;;23.80;60.70;;;;;;5041188;28;20026;-85
2022/10/16 10:22:31;;;;;;;3.85;2.00;;;23.80;60.00;;;;;;5042295;28;20031;-84
2022/10/16 10:25:07;;;;;;;1.85;1.25;;;23.90;59.40;;;;;;5041689;28;20033;-85
2022/10/16 10:28:12;;;;;;;1.42;1.33;;;23.90;59.00;;;;;;5042462;28;20025;-85
2022/10/16 10:30:51;;;;;;;1.50;1.40;;;24.00;58.20;;;;;;5024551;28;20428;-85
2022/10/16 10:33:28;;;;;;;1.10;1.10;;;24.00;58.40;;;;;;5024184;28;20108;-84
2022/10/16 10:36:08;;;;;;;1.50;1.40;;;24.00;58.50;;;;;;5045434;28;20056;-84
2022/10/16 10:38:46;;;;;;;3.38;1.20;;;24.10;58.30;;;;;;5030134;28;20014;-84
2022/10/16 10:41:30;;;;;;;1.10;1.10;;;24.10;57.90;;;;;;5013244;28;20022;-84
2022/10/16 10:44:09;;;;;;;2.35;1.45;;;24.10;57.90;;;;;;5041623;28;20032;-85
2022/10/16 10:47:03;;;;;;;1.65;1.20;;;24.10;57.70;;;;;;5041682;28;20041;-84
2022/10/16 10:49:47;;;;;;;2.25;1.63;;;24.20;57.30;;;;;;5041259;28;20100;-84
2022/10/16 10:52:41;;;;;;;1.30;1.20;;;24.20;56.50;;;;;;5042250;28;20164;-83
2022/10/16 10:55:31;;;;;;;5.07;2.42;;;24.30;56.90;;;;;;4998524;28;20050;-84
2022/10/16 10:58:03;;;;;;;2.42;2.22;;;24.30;56.40;;;;;;5023613;28;20051;-84
2022/10/16 11:00:51;;;;;;;2.85;1.63;;;24.50;56.40;;;;;;5044611;28;20029;-83
2022/10/16 11:03:25;;;;;;;1.42;1.20;;;24.50;56.40;;;;;;5023356;28;20048;-83
2022/10/16 11:06:02;;;;;;;3.05;1.63;;;24.50;56.40;;;;;;5040547;28;20033;-83
2022/10/16 11:08:40;;;;;;;1.52;1.10;;;24.50;56.40;;;;;;5030258;28;20018;-84
2022/10/16 11:11:20;;;;;;;1.20;1.20;;;24.50;55.60;;;;;;5037289;28;20056;-85
2022/10/16 11:14:02;;;;;;;1.30;1.20;;;24.30;55.70;;;;;;5021734;28;20025;-86
2022/10/16 11:16:32;;;;;;;1.08;1.00;;;24.40;56.00;;;;;;5038447;28;20044;-85
2022/10/16 11:22:33;;;;;;;1.05;0.90;;;24.60;55.60;;;;;;5021954;28;20029;-83
2022/10/16 11:25:21;;;;;;;1.73;1.27;;;24.60;55.70;;;;;;5025338;28;20033;-84
2022/10/16 11:27:56;;;;;;;2.72;1.13;;;24.60;55.90;;;;;;5015861;28;20026;-83
2022/10/16 11:30:57;;;;;;;2.58;1.77;;;24.70;55.00;;;;;;5039411;28;20529;-84
2022/10/16 11:33:54;;;;;;;1.23;1.10;;;24.70;53.30;;;;;;5041368;28;20132;-83
2022/10/16 11:36:25;;;;;;;1.02;1.02;;;24.70;52.60;;;;;;4985781;28;20096;-85
2022/10/16 11:39:29;;;;;;;1.58;0.90;;;24.80;53.10;;;;;;5037406;28;20742;-85
2022/10/16 11:42:20;;;;;;;0.90;0.90;;;24.80;52.80;;;;;;5038182;28;20033;-84
2022/10/16 11:45:28;;;;;;;1.20;0.80;;;24.80;52.80;;;;;;4997772;28;20034;-84
2022/10/16 11:48:14;;;;;;;1.08;1.08;;;24.90;52.90;;;;;;5018215;28;20497;-85
2022/10/16 11:50:45;;;;;;;1.20;0.90;;;25.00;52.10;;;;;;5044088;28;20105;-84
2022/10/16 11:53:32;;;;;;;0.50;0.50;;;25.10;51.50;;;;;;5025244;28;20044;-83
2022/10/16 12:03:13;;;;;;;0.90;0.40;;;25.30;49.10;;;;;;4969297;29;20115;-82
2022/10/16 12:06:24;;;;;;;1.88;0.70;;;25.50;48.40;;;;;;5033283;28;20022;-83
2022/10/16 12:08:51;;;;;;;0.70;0.70;;;25.70;47.80;;;;;;4992028;28;20030;-84
2022/10/16 12:11:29;;;;;;;0.70;0.70;;;25.80;48.40;;;;;;4989491;28;20073;-83
2022/10/16 12:14:20;;;;;;;1.33;0.80;;;26.00;47.40;;;;;;5013120;28;20034;-83
2022/10/16 12:16:58;;;;;;;0.60;0.60;;;26.30;46.40;;;;;;5042385;28;20021;-83
2022/10/16 12:19:26;;;;;;;0.38;0.38;;;26.50;46.90;;;;;;5051934;28;20494;-84
2022/10/16 12:22:05;;;;;;;2.38;0.80;;;26.40;47.00;;;;;;5037244;28;20085;-84
2022/10/16 12:24:42;;;;;;;0.90;0.90;;;26.20;47.50;;;;;;5050339;28;20105;-84
2022/10/16 12:27:21;;;;;;;0.55;0.50;;;25.70;48.10;;;;;;5043219;28;20075;-83
2022/10/16 12:30:08;;;;;;;0.60;0.60;;;25.40;48.10;;;;;;5064303;28;20027;-84
2022/10/16 12:32:37;;;;;;;1.23;0.98;;;25.20;48.00;;;;;;5004037;28;20026;-84
2022/10/16 12:35:04;;;;;;;0.75;0.75;;;25.30;49.20;;;;;;5002422;28;20096;-84
2022/10/16 12:37:35;;;;;;;1.17;0.80;;;25.30;49.80;;;;;;5031561;28;20021;-85
2022/10/16 12:40:15;;;;;;;1.75;0.93;;;25.30;50.20;;;;;;5034302;28;20026;-85
2022/10/16 12:42:41;;;;;;;1.95;0.70;;;25.40;49.90;;;;;;5022687;28;20037;-85
2022/10/16 12:45:31;;;;;;;0.68;0.68;;;25.40;50.40;;;;;;5022272;28;20397;-83
2022/10/16 12:47:58;;;;;;;5.25;3.83;;;25.40;50.60;;;;;;5010901;28;20021;-83
2022/10/16 12:50:34;;;;;;;1.55;1.45;;;25.40;50.90;;;;;;5023446;28;20025;-80
2022/10/16 12:53:01;;;;;;;0.80;0.80;;;25.40;51.00;;;;;;5032160;28;20046;-81
2022/10/16 12:55:34;;;;;;;0.73;0.70;;;25.50;50.50;;;;;;5008621;28;20034;-83
2022/10/16 12:58:22;;;;;;;0.88;0.80;;;25.50;50.00;;;;;;5034847;28;20029;-84
2022/10/16 13:00:54;;;;;;;0.77;0.70;;;25.50;50.30;;;;;;5034439;28;20029;-84
2022/10/16 13:04:08;;;;;;;1.10;0.98;;;25.50;49.90;;;;;;5030957;28;20025;-85
2022/10/16 13:07:12;;;;;;;1.25;1.00;;;25.50;49.10;;;;;;4970971;29;20031;-83
2022/10/16 13:09:56;;;;;;;0.70;0.70;;;25.40;49.90;;;;;;4959553;29;20027;-83
2022/10/16 13:12:47;;;;;;;1.05;0.90;;;25.40;50.10;;;;;;4945874;29;20116;-85
2022/10/16 13:15:46;;;;;;;2.30;0.90;;;;;;;;;;4988142;22;20030;-85
2022/10/16 13:19:01;;;;;;;0.65;0.65;;;25.80;49.50;;;;;;5005805;28;20102;-85
2022/10/16 13:21:59;;;;;;;1.10;1.00;;;26.20;48.80;;;;;;5004008;28;20056;-84
2022/10/16 13:25:19;;;;;;;0.70;0.70;;;26.50;48.10;;;;;;5003956;28;20021;-85
2022/10/16 13:27:59;;;;;;;0.70;0.70;;;26.70;48.50;;;;;;5002246;28;20406;-84